Webster, Michigan
Current Conditions -  °F | °C
As of 7:59 AM on Friday 24 Oct 2014 (Local Time) from KARB Reporting Station
Haze Haze  
Wind Chill: 32°   Ceiling: Unl
Heat Index: 32°   Visibility: 1.2mi
Dew Point: 28°   Wind: 0mph
Humidity: 85%   Direction: NA
Pressure: 30.08"   Gusts: NA
Location:  42.3528°N, 83.8974°W
Report Text: KARB 241159Z AUTO 00000KT 1 1/4SM BR CLR 00/M02 A3008 RMK AO2 T00001022
Loading
Personal Weather Stations






























Interactive Weather Map
Tropical Storm Tracking
New forecast layout! Learn more

10-Day Weather Forecast

Advertisements
Track Severe Weather on mobile